Terminal Aerodrome Forecast
Issued by NWS

Home | Current Version | Previous Version | Text Only | Print | Product List | Glossary On
Versions: 1 2 3 4 5 6 7 8 9 10 11 12
000
FTUS45 KABQ 051726
TAFROW
TAF
KROW 051726Z 0518/0618 16012KT P6SM SCT250
     FM052030 16013G23KT P6SM SCT250
     FM060200 16007KT P6SM SCT200=

USA.gov is the U.S. government's official web portal to all federal, state and local government web resources and services.